createdAt,value
2022-11-15T00:00:16.402Z,4.10
2022-11-15T00:05:37.152Z,4.00
2022-11-15T00:11:02.108Z,4.00
2022-11-15T00:16:23.030Z,3.90
2022-11-15T00:21:43.208Z,3.80
2022-11-15T00:27:07.606Z,3.80
2022-11-15T00:32:31.828Z,3.80
2022-11-15T00:37:53.775Z,3.70
2022-11-15T00:43:14.215Z,3.80
2022-11-15T00:48:34.456Z,3.80
2022-11-15T00:53:54.641Z,3.80
2022-11-15T00:59:14.683Z,3.70
2022-11-15T01:04:35.293Z,3.70
2022-11-15T01:09:55.450Z,3.80
2022-11-15T01:15:16.280Z,3.70
2022-11-15T01:20:43.897Z,3.60
2022-11-15T01:26:07.209Z,3.70
2022-11-15T01:31:27.471Z,3.60
2022-11-15T01:36:48.014Z,3.50
2022-11-15T01:42:14.874Z,3.60
2022-11-15T01:47:40.143Z,3.50
2022-11-15T01:53:00.798Z,3.50
2022-11-15T01:58:21.329Z,3.40
2022-11-15T02:03:57.682Z,3.60
2022-11-15T02:09:18.217Z,3.40
2022-11-15T02:14:43.364Z,3.30
2022-11-15T02:20:29.215Z,3.20
2022-11-15T02:26:30.019Z,3.10
2022-11-15T02:32:16.004Z,3.20
2022-11-15T02:37:48.135Z,3.40
2022-11-15T02:43:30.208Z,3.40
2022-11-15T02:48:51.793Z,3.50
2022-11-15T02:54:16.507Z,3.30
2022-11-15T02:59:52.306Z,3.10
2022-11-15T03:05:30.607Z,3.00
2022-11-15T03:10:57.211Z,3.20
2022-11-15T03:16:20.494Z,3.30
2022-11-15T03:21:42.134Z,3.30
2022-11-15T03:27:04.166Z,3.30
2022-11-15T03:32:30.961Z,3.20
2022-11-15T03:38:24.360Z,3.30
2022-11-15T03:44:05.468Z,3.40
2022-11-15T03:49:37.542Z,3.30
2022-11-15T03:55:01.030Z,3.20
2022-11-15T04:00:21.563Z,3.30
2022-11-15T04:05:42.258Z,3.40
2022-11-15T04:11:02.786Z,3.30
2022-11-15T04:16:23.023Z,3.20
2022-11-15T04:22:02.023Z,3.20
2022-11-15T04:27:22.562Z,3.40
2022-11-15T04:32:42.833Z,3.20
2022-11-15T04:38:04.415Z,3.10
2022-11-15T04:43:24.869Z,3.30
2022-11-15T04:48:45.105Z,3.10
2022-11-15T04:54:05.267Z,3.10
2022-11-15T04:59:25.894Z,3.00
2022-11-15T05:04:46.121Z,3.00
2022-11-15T05:10:06.886Z,2.90
2022-11-15T05:15:27.316Z,2.90
2022-11-15T05:20:47.689Z,2.90
2022-11-15T05:26:11.666Z,2.80
2022-11-15T05:31:32.272Z,2.70
2022-11-15T05:36:52.707Z,2.70
2022-11-15T05:42:16.155Z,2.50
2022-11-15T05:47:39.417Z,2.50
2022-11-15T05:53:04.934Z,2.30
2022-11-15T05:58:25.676Z,2.30
2022-11-15T06:03:45.969Z,2.30
2022-11-15T06:09:06.175Z,2.30
2022-11-15T06:14:26.390Z,2.30
2022-11-15T06:19:46.665Z,2.30
2022-11-15T06:25:07.798Z,2.30
2022-11-15T06:30:28.446Z,2.30
2022-11-15T06:35:48.823Z,2.50
2022-11-15T06:41:10.783Z,2.30
2022-11-15T06:46:31.406Z,2.30
2022-11-15T06:51:52.051Z,2.20
2022-11-15T06:57:12.846Z,2.40
2022-11-15T07:02:33.392Z,2.50
2022-11-15T07:07:55.271Z,2.40
2022-11-15T07:13:15.622Z,2.60
2022-11-15T07:18:37.123Z,2.60
2022-11-15T07:23:57.379Z,2.80
2022-11-15T07:29:17.669Z,2.90
2022-11-15T07:34:39.245Z,2.80
2022-11-15T07:40:03.861Z,2.80
2022-11-15T07:45:27.520Z,2.80
2022-11-15T07:50:49.083Z,2.80
2022-11-15T07:56:10.547Z,3.60
2022-11-15T08:01:30.961Z,3.50
2022-11-15T08:06:51.657Z,3.90
2022-11-15T08:12:12.171Z,4.10
2022-11-15T08:17:33.820Z,4.60
2022-11-15T08:22:54.375Z,4.80
2022-11-15T08:28:17.174Z,5.10
2022-11-15T08:33:37.852Z,5.70
2022-11-15T08:38:58.456Z,6.20
2022-11-15T08:44:18.515Z,5.80
2022-11-15T08:49:38.643Z,5.90
2022-11-15T08:54:59.029Z,6.40
2022-11-15T09:00:20.989Z,6.50
2022-11-15T09:05:41.754Z,7.00
2022-11-15T09:11:10.248Z,7.40
2022-11-15T09:16:32.279Z,8.00
2022-11-15T09:21:52.549Z,8.80
2022-11-15T09:27:14.218Z,9.00
2022-11-15T09:32:39.077Z,9.20
2022-11-15T09:38:00.039Z,9.70
2022-11-15T09:43:39.123Z,10.50
2022-11-15T09:49:01.479Z,10.70
2022-11-15T10:05:48.620Z,12.60
2022-11-15T10:11:30.486Z,12.50
2022-11-15T10:16:48.211Z,12.70
2022-11-15T10:21:57.838Z,13.80
2022-11-15T10:26:59.623Z,13.50
2022-11-15T10:32:01.432Z,13.70
2022-11-15T10:37:03.386Z,13.50
2022-11-15T10:42:28.816Z,12.70
2022-11-15T10:47:38.841Z,11.20
2022-11-15T10:52:47.056Z,10.30
2022-11-15T10:58:00.490Z,10.50
2022-11-15T11:03:22.210Z,10.70
2022-11-15T11:08:25.706Z,10.60
2022-11-15T11:13:30.054Z,10.80
2022-11-15T11:18:50.920Z,11.00
2022-11-15T11:24:05.568Z,11.30
2022-11-15T11:29:22.405Z,11.20
2022-11-15T11:34:30.426Z,11.20
2022-11-15T11:39:43.069Z,12.10
2022-11-15T11:45:10.822Z,13.20
2022-11-15T11:50:23.997Z,14.30
2022-11-15T11:55:29.246Z,13.10
2022-11-15T12:00:36.241Z,11.60
2022-11-15T12:05:45.393Z,10.90
2022-11-15T12:10:54.238Z,11.00
2022-11-15T12:16:28.718Z,11.30
2022-11-15T12:22:04.209Z,10.90
2022-11-15T12:27:20.668Z,10.60
2022-11-15T12:32:31.485Z,10.70
2022-11-15T12:37:38.732Z,10.80
2022-11-15T12:42:59.488Z,10.50
2022-11-15T12:48:16.583Z,10.50
2022-11-15T12:53:27.790Z,10.20
2022-11-15T12:58:40.274Z,10.00
2022-11-15T13:04:19.820Z,9.90
2022-11-15T13:09:37.044Z,10.20
2022-11-15T13:14:40.395Z,10.00
2022-11-15T13:19:42.332Z,10.10
2022-11-15T13:24:44.168Z,10.20
2022-11-15T13:29:46.048Z,10.40
2022-11-15T13:34:52.145Z,10.50
2022-11-15T13:39:54.563Z,10.60
2022-11-15T13:44:59.154Z,10.60
2022-11-15T13:50:02.113Z,10.90
2022-11-15T13:55:21.643Z,10.90
2022-11-15T14:00:41.165Z,10.70
2022-11-15T14:05:43.434Z,10.30
2022-11-15T14:10:46.300Z,10.10
2022-11-15T14:15:49.824Z,10.10
2022-11-15T14:21:08.275Z,10.10
2022-11-15T14:26:33.509Z,9.70
2022-11-15T14:31:41.098Z,9.50
2022-11-15T14:36:46.956Z,9.50
2022-11-15T14:41:49.860Z,9.60
2022-11-15T14:46:52.778Z,9.40
2022-11-15T14:51:55.557Z,9.20
2022-11-15T14:56:58.768Z,9.10
2022-11-15T15:02:01.994Z,9.30
2022-11-15T15:07:05.191Z,9.10
2022-11-15T15:12:19.365Z,8.80
2022-11-15T15:17:27.978Z,8.60
2022-11-15T15:22:31.732Z,8.50
2022-11-15T15:27:34.997Z,8.30
2022-11-15T15:32:44.036Z,8.20
2022-11-15T15:37:48.917Z,8.10
2022-11-15T15:42:52.618Z,8.00
2022-11-15T15:47:55.845Z,8.00
2022-11-15T15:53:00.437Z,7.90
2022-11-15T15:58:06.940Z,7.80
2022-11-15T16:03:23.778Z,7.90
2022-11-15T16:08:42.559Z,7.90
2022-11-15T16:13:57.315Z,7.90
2022-11-15T16:19:02.062Z,7.90
2022-11-15T16:24:05.881Z,7.80
2022-11-15T16:29:14.213Z,7.80
2022-11-15T16:34:17.420Z,7.90
2022-11-15T16:39:21.025Z,8.20
2022-11-15T16:44:25.363Z,8.10
2022-11-15T16:49:28.983Z,8.00
2022-11-15T16:54:35.568Z,8.00
2022-11-15T16:59:38.749Z,7.90
2022-11-15T17:04:41.760Z,8.10
2022-11-15T17:09:44.598Z,8.30
2022-11-15T17:14:47.501Z,8.30
2022-11-15T17:19:50.672Z,8.10
2022-11-15T17:24:53.393Z,8.20
2022-11-15T17:29:56.511Z,8.10
2022-11-15T17:34:59.194Z,8.30
2022-11-15T17:40:01.875Z,8.10
2022-11-15T17:45:09.629Z,8.00
2022-11-15T17:50:12.798Z,8.20
2022-11-15T17:55:15.609Z,8.30
2022-11-15T18:00:21.168Z,8.30
2022-11-15T18:05:23.742Z,8.20
2022-11-15T18:10:26.458Z,8.30
2022-11-15T18:15:29.646Z,8.20
2022-11-15T18:20:33.056Z,8.10
2022-11-15T18:25:36.344Z,7.70
2022-11-15T18:30:44.796Z,7.70
2022-11-15T18:35:49.018Z,7.70
2022-11-15T18:40:51.928Z,7.60
2022-11-15T18:45:54.955Z,7.80
2022-11-15T18:51:05.281Z,7.90
2022-11-15T18:56:11.596Z,7.80
2022-11-15T19:01:19.868Z,7.90
2022-11-15T19:06:29.668Z,7.90
2022-11-15T19:11:36.293Z,7.90
2022-11-15T19:16:41.615Z,7.90
2022-11-15T19:27:03.177Z,7.90
2022-11-15T19:32:07.720Z,7.60
2022-11-15T19:37:22.697Z,7.50
2022-11-15T19:42:42.907Z,7.60
2022-11-15T19:47:58.091Z,7.60
2022-11-15T19:53:15.541Z,7.50
2022-11-15T19:58:21.019Z,7.70
2022-11-15T20:08:48.338Z,7.80
2022-11-15T20:13:52.767Z,7.50
2022-11-15T20:19:28.516Z,7.60
2022-11-15T20:24:39.528Z,7.60
2022-11-15T20:29:44.986Z,7.80
2022-11-15T20:34:54.713Z,7.80
2022-11-15T20:39:58.351Z,7.70
2022-11-15T20:45:04.734Z,7.80
2022-11-15T20:50:35.393Z,7.80
2022-11-15T20:55:31.593Z,7.60
2022-11-15T21:00:37.572Z,7.60
2022-11-15T21:05:44.658Z,7.80
2022-11-15T21:11:10.633Z,7.90
2022-11-15T21:16:13.841Z,7.90
2022-11-15T21:21:16.908Z,7.60
2022-11-15T21:26:20.359Z,7.50
2022-11-15T21:31:23.732Z,7.40
2022-11-15T21:36:27.091Z,7.40
2022-11-15T21:41:34.044Z,7.50
2022-11-15T21:46:40.721Z,7.40
2022-11-15T21:57:19.499Z,7.40
2022-11-15T22:02:23.160Z,7.50
2022-11-15T22:07:26.416Z,7.60
2022-11-15T22:12:29.963Z,7.50
2022-11-15T22:17:51.317Z,7.70
2022-11-15T22:22:54.524Z,7.80
2022-11-15T22:27:57.640Z,7.90
2022-11-15T22:33:00.639Z,7.90
2022-11-15T22:38:03.913Z,7.80
2022-11-15T22:43:10.024Z,7.70
2022-11-15T22:48:13.123Z,7.70
2022-11-15T22:53:15.768Z,7.70
2022-11-15T22:58:19.008Z,7.70
2022-11-15T23:03:23.184Z,7.80
2022-11-15T23:08:25.302Z,8.00
2022-11-15T23:13:29.242Z,8.00
2022-11-15T23:18:36.146Z,7.90
2022-11-15T23:23:38.870Z,7.90
2022-11-15T23:28:40.698Z,7.90
2022-11-15T23:33:57.464Z,7.80
2022-11-15T23:38:59.397Z,7.80
2022-11-15T23:44:01.392Z,7.70
2022-11-15T23:49:03.582Z,7.60
2022-11-15T23:54:05.943Z,7.50
2022-11-15T23:59:08.098Z,7.50
